sensor_id;sensor_type;location;lat;lon;timestamp;P1;durP1;ratioP1;P2;durP2;ratioP2
85162;SDS011;75527;48.526;9.158;2024-03-22T00:02:16;14.45;;;7.90;;
85162;SDS011;75527;48.526;9.158;2024-03-22T00:04:41;15.05;;;8.90;;
85162;SDS011;75527;48.526;9.158;2024-03-22T00:07:06;14.75;;;8.25;;
85162;SDS011;75527;48.526;9.158;2024-03-22T00:09:31;14.27;;;8.90;;
85162;SDS011;75527;48.526;9.158;2024-03-22T00:11:57;16.70;;;8.45;;
85162;SDS011;75527;48.526;9.158;2024-03-22T00:14:22;14.05;;;7.82;;
85162;SDS011;75527;48.526;9.158;2024-03-22T00:16:48;16.42;;;7.43;;
85162;SDS011;75527;48.526;9.158;2024-03-22T00:19:13;14.18;;;8.07;;
85162;SDS011;75527;48.526;9.158;2024-03-22T00:21:38;15.73;;;7.80;;
85162;SDS011;75527;48.526;9.158;2024-03-22T00:24:04;14.75;;;8.20;;
85162;SDS011;75527;48.526;9.158;2024-03-22T00:26:29;12.23;;;7.65;;
85162;SDS011;75527;48.526;9.158;2024-03-22T00:28:54;14.40;;;8.05;;
85162;SDS011;75527;48.526;9.158;2024-03-22T00:31:22;12.25;;;7.18;;
85162;SDS011;75527;48.526;9.158;2024-03-22T00:33:48;14.65;;;8.07;;
85162;SDS011;75527;48.526;9.158;2024-03-22T00:36:13;14.57;;;7.93;;
85162;SDS011;75527;48.526;9.158;2024-03-22T00:38:38;16.17;;;9.00;;
85162;SDS011;75527;48.526;9.158;2024-03-22T00:41:04;14.07;;;8.25;;
85162;SDS011;75527;48.526;9.158;2024-03-22T00:43:29;20.07;;;8.97;;
85162;SDS011;75527;48.526;9.158;2024-03-22T00:45:54;14.23;;;8.15;;
85162;SDS011;75527;48.526;9.158;2024-03-22T00:48:19;15.18;;;8.38;;
85162;SDS011;75527;48.526;9.158;2024-03-22T00:50:45;14.45;;;7.80;;
85162;SDS011;75527;48.526;9.158;2024-03-22T00:53:10;15.40;;;7.65;;
85162;SDS011;75527;48.526;9.158;2024-03-22T00:55:36;13.57;;;8.43;;
85162;SDS011;75527;48.526;9.158;2024-03-22T00:58:02;14.07;;;7.80;;
85162;SDS011;75527;48.526;9.158;2024-03-22T01:00:27;12.52;;;7.80;;
85162;SDS011;75527;48.526;9.158;2024-03-22T01:02:52;14.20;;;8.77;;
85162;SDS011;75527;48.526;9.158;2024-03-22T01:05:18;14.95;;;7.75;;
85162;SDS011;75527;48.526;9.158;2024-03-22T01:07:43;14.73;;;8.50;;
85162;SDS011;75527;48.526;9.158;2024-03-22T01:10:09;19.05;;;8.75;;
85162;SDS011;75527;48.526;9.158;2024-03-22T01:12:35;17.88;;;9.68;;
85162;SDS011;75527;48.526;9.158;2024-03-22T01:15:01;16.58;;;8.70;;
85162;SDS011;75527;48.526;9.158;2024-03-22T01:17:26;14.23;;;9.35;;
85162;SDS011;75527;48.526;9.158;2024-03-22T01:19:51;15.32;;;8.80;;
85162;SDS011;75527;48.526;9.158;2024-03-22T01:22:17;16.67;;;9.97;;
85162;SDS011;75527;48.526;9.158;2024-03-22T01:24:43;18.92;;;9.68;;
85162;SDS011;75527;48.526;9.158;2024-03-22T01:27:08;16.67;;;9.50;;
85162;SDS011;75527;48.526;9.158;2024-03-22T01:29:34;14.45;;;8.80;;
85162;SDS011;75527;48.526;9.158;2024-03-22T01:31:59;14.80;;;9.32;;
85162;SDS011;75527;48.526;9.158;2024-03-22T01:34:24;13.45;;;8.88;;
85162;SDS011;75527;48.526;9.158;2024-03-22T01:36:50;19.50;;;8.68;;
85162;SDS011;75527;48.526;9.158;2024-03-22T01:39:16;16.48;;;9.57;;
85162;SDS011;75527;48.526;9.158;2024-03-22T01:41:42;15.65;;;8.80;;
85162;SDS011;75527;48.526;9.158;2024-03-22T01:44:08;17.48;;;9.85;;
85162;SDS011;75527;48.526;9.158;2024-03-22T01:46:34;18.42;;;9.10;;
85162;SDS011;75527;48.526;9.158;2024-03-22T01:49:00;13.70;;;8.82;;
85162;SDS011;75527;48.526;9.158;2024-03-22T01:51:25;15.85;;;9.23;;
85162;SDS011;75527;48.526;9.158;2024-03-22T01:53:51;15.85;;;8.85;;
85162;SDS011;75527;48.526;9.158;2024-03-22T01:56:18;15.40;;;8.85;;
85162;SDS011;75527;48.526;9.158;2024-03-22T01:58:44;16.75;;;8.02;;
85162;SDS011;75527;48.526;9.158;2024-03-22T02:01:10;15.52;;;9.27;;
85162;SDS011;75527;48.526;9.158;2024-03-22T02:03:35;16.35;;;8.65;;
85162;SDS011;75527;48.526;9.158;2024-03-22T02:06:01;19.83;;;8.43;;
85162;SDS011;75527;48.526;9.158;2024-03-22T02:08:26;15.57;;;8.40;;
85162;SDS011;75527;48.526;9.158;2024-03-22T02:10:51;13.35;;;8.40;;
85162;SDS011;75527;48.526;9.158;2024-03-22T02:13:17;14.10;;;7.75;;
85162;SDS011;75527;48.526;9.158;2024-03-22T02:15:43;15.93;;;8.25;;
85162;SDS011;75527;48.526;9.158;2024-03-22T02:18:08;15.48;;;8.80;;
85162;SDS011;75527;48.526;9.158;2024-03-22T02:20:34;11.98;;;7.80;;
85162;SDS011;75527;48.526;9.158;2024-03-22T02:23:00;13.98;;;7.75;;
85162;SDS011;75527;48.526;9.158;2024-03-22T02:25:25;14.05;;;8.77;;
85162;SDS011;75527;48.526;9.158;2024-03-22T02:27:50;14.85;;;8.20;;
85162;SDS011;75527;48.526;9.158;2024-03-22T02:30:16;18.10;;;8.75;;
85162;SDS011;75527;48.526;9.158;2024-03-22T02:32:42;11.63;;;7.72;;
85162;SDS011;75527;48.526;9.158;2024-03-22T02:35:07;11.57;;;7.63;;
85162;SDS011;75527;48.526;9.158;2024-03-22T02:37:33;12.35;;;7.30;;
85162;SDS011;75527;48.526;9.158;2024-03-22T02:39:58;14.40;;;7.83;;
85162;SDS011;75527;48.526;9.158;2024-03-22T02:42:24;13.25;;;7.93;;
85162;SDS011;75527;48.526;9.158;2024-03-22T02:44:49;12.80;;;7.85;;
85162;SDS011;75527;48.526;9.158;2024-03-22T02:47:14;18.17;;;8.07;;
85162;SDS011;75527;48.526;9.158;2024-03-22T02:49:40;14.30;;;8.30;;
85162;SDS011;75527;48.526;9.158;2024-03-22T02:52:06;11.77;;;8.13;;
85162;SDS011;75527;48.526;9.158;2024-03-22T02:54:31;15.43;;;8.40;;
85162;SDS011;75527;48.526;9.158;2024-03-22T02:56:57;13.70;;;7.60;;
85162;SDS011;75527;48.526;9.158;2024-03-22T02:59:25;16.95;;;7.90;;
85162;SDS011;75527;48.526;9.158;2024-03-22T03:01:50;13.93;;;7.93;;
85162;SDS011;75527;48.526;9.158;2024-03-22T03:04:16;13.27;;;7.80;;
85162;SDS011;75527;48.526;9.158;2024-03-22T03:06:41;12.67;;;8.00;;
85162;SDS011;75527;48.526;9.158;2024-03-22T03:09:06;14.27;;;7.87;;
85162;SDS011;75527;48.526;9.158;2024-03-22T03:11:33;12.82;;;7.95;;
85162;SDS011;75527;48.526;9.158;2024-03-22T03:13:58;13.15;;;8.32;;
85162;SDS011;75527;48.526;9.158;2024-03-22T03:16:24;17.33;;;8.48;;
85162;SDS011;75527;48.526;9.158;2024-03-22T03:18:49;12.40;;;7.75;;
85162;SDS011;75527;48.526;9.158;2024-03-22T03:21:14;11.75;;;6.88;;
85162;SDS011;75527;48.526;9.158;2024-03-22T03:23:39;17.43;;;7.80;;
85162;SDS011;75527;48.526;9.158;2024-03-22T03:26:05;16.23;;;8.30;;
85162;SDS011;75527;48.526;9.158;2024-03-22T03:28:30;15.45;;;8.65;;
85162;SDS011;75527;48.526;9.158;2024-03-22T03:30:55;13.02;;;7.95;;
85162;SDS011;75527;48.526;9.158;2024-03-22T03:33:20;17.17;;;8.10;;
85162;SDS011;75527;48.526;9.158;2024-03-22T03:35:46;14.18;;;8.05;;
85162;SDS011;75527;48.526;9.158;2024-03-22T03:38:12;12.55;;;8.38;;
85162;SDS011;75527;48.526;9.158;2024-03-22T03:40:38;16.08;;;7.55;;
85162;SDS011;75527;48.526;9.158;2024-03-22T03:43:03;13.77;;;8.00;;
85162;SDS011;75527;48.526;9.158;2024-03-22T03:45:28;16.02;;;8.90;;
85162;SDS011;75527;48.526;9.158;2024-03-22T03:47:53;15.37;;;8.57;;
85162;SDS011;75527;48.526;9.158;2024-03-22T03:50:19;15.30;;;7.75;;
85162;SDS011;75527;48.526;9.158;2024-03-22T03:52:44;11.57;;;7.40;;
85162;SDS011;75527;48.526;9.158;2024-03-22T03:55:09;13.33;;;7.50;;
85162;SDS011;75527;48.526;9.158;2024-03-22T03:57:35;12.65;;;7.85;;
85162;SDS011;75527;48.526;9.158;2024-03-22T04:00:00;13.23;;;9.07;;
85162;SDS011;75527;48.526;9.158;2024-03-22T04:02:25;13.13;;;8.05;;
85162;SDS011;75527;48.526;9.158;2024-03-22T04:04:53;13.98;;;7.50;;
85162;SDS011;75527;48.526;9.158;2024-03-22T04:07:22;14.40;;;7.22;;
85162;SDS011;75527;48.526;9.158;2024-03-22T04:09:47;13.60;;;8.20;;
85162;SDS011;75527;48.526;9.158;2024-03-22T04:12:12;13.05;;;7.43;;
85162;SDS011;75527;48.526;9.158;2024-03-22T04:14:38;16.45;;;7.28;;
85162;SDS011;75527;48.526;9.158;2024-03-22T04:17:03;16.02;;;8.00;;
85162;SDS011;75527;48.526;9.158;2024-03-22T04:19:29;16.00;;;8.10;;
85162;SDS011;75527;48.526;9.158;2024-03-22T04:21:54;13.55;;;8.05;;
85162;SDS011;75527;48.526;9.158;2024-03-22T04:24:19;13.30;;;7.63;;
85162;SDS011;75527;48.526;9.158;2024-03-22T04:26:44;14.43;;;7.85;;
85162;SDS011;75527;48.526;9.158;2024-03-22T04:29:10;14.55;;;8.27;;
85162;SDS011;75527;48.526;9.158;2024-03-22T04:31:35;13.50;;;8.00;;
85162;SDS011;75527;48.526;9.158;2024-03-22T04:34:00;16.77;;;8.57;;
85162;SDS011;75527;48.526;9.158;2024-03-22T04:36:26;14.32;;;7.88;;
85162;SDS011;75527;48.526;9.158;2024-03-22T04:38:51;15.18;;;7.95;;
85162;SDS011;75527;48.526;9.158;2024-03-22T04:41:16;15.48;;;8.02;;
85162;SDS011;75527;48.526;9.158;2024-03-22T04:43:42;14.10;;;7.85;;
85162;SDS011;75527;48.526;9.158;2024-03-22T04:46:08;12.80;;;8.55;;
85162;SDS011;75527;48.526;9.158;2024-03-22T04:48:33;16.58;;;7.95;;
85162;SDS011;75527;48.526;9.158;2024-03-22T04:50:58;16.35;;;8.32;;
85162;SDS011;75527;48.526;9.158;2024-03-22T04:53:24;13.73;;;8.23;;
85162;SDS011;75527;48.526;9.158;2024-03-22T04:55:49;16.15;;;8.85;;
85162;SDS011;75527;48.526;9.158;2024-03-22T04:58:16;12.40;;;8.02;;
85162;SDS011;75527;48.526;9.158;2024-03-22T05:00:43;16.10;;;8.77;;
85162;SDS011;75527;48.526;9.158;2024-03-22T05:03:09;15.13;;;8.27;;
85162;SDS011;75527;48.526;9.158;2024-03-22T05:05:35;12.43;;;7.63;;
85162;SDS011;75527;48.526;9.158;2024-03-22T05:08:01;15.30;;;8.18;;
85162;SDS011;75527;48.526;9.158;2024-03-22T05:10:27;11.73;;;7.72;;
85162;SDS011;75527;48.526;9.158;2024-03-22T05:12:53;15.13;;;8.75;;
85162;SDS011;75527;48.526;9.158;2024-03-22T05:15:19;18.40;;;8.93;;
85162;SDS011;75527;48.526;9.158;2024-03-22T05:17:45;15.20;;;8.40;;
85162;SDS011;75527;48.526;9.158;2024-03-22T05:20:10;13.48;;;8.07;;
85162;SDS011;75527;48.526;9.158;2024-03-22T05:22:38;17.80;;;9.73;;
85162;SDS011;75527;48.526;9.158;2024-03-22T05:25:04;18.02;;;8.95;;
85162;SDS011;75527;48.526;9.158;2024-03-22T05:27:30;13.52;;;7.53;;
85162;SDS011;75527;48.526;9.158;2024-03-22T05:29:56;13.82;;;8.02;;
85162;SDS011;75527;48.526;9.158;2024-03-22T05:32:21;16.73;;;8.13;;
85162;SDS011;75527;48.526;9.158;2024-03-22T05:34:47;13.88;;;7.88;;
85162;SDS011;75527;48.526;9.158;2024-03-22T05:37:13;13.73;;;8.20;;
85162;SDS011;75527;48.526;9.158;2024-03-22T05:39:38;14.63;;;7.93;;
85162;SDS011;75527;48.526;9.158;2024-03-22T05:42:05;21.48;;;8.80;;
85162;SDS011;75527;48.526;9.158;2024-03-22T05:44:31;14.18;;;8.30;;
85162;SDS011;75527;48.526;9.158;2024-03-22T05:46:56;15.05;;;7.80;;
85162;SDS011;75527;48.526;9.158;2024-03-22T05:49:22;14.15;;;7.82;;
85162;SDS011;75527;48.526;9.158;2024-03-22T05:51:47;12.82;;;7.38;;
85162;SDS011;75527;48.526;9.158;2024-03-22T05:54:12;16.90;;;8.30;;
85162;SDS011;75527;48.526;9.158;2024-03-22T05:56:38;13.95;;;7.88;;
85162;SDS011;75527;48.526;9.158;2024-03-22T05:59:03;15.77;;;8.93;;
85162;SDS011;75527;48.526;9.158;2024-03-22T06:01:28;17.85;;;7.38;;
85162;SDS011;75527;48.526;9.158;2024-03-22T06:03:54;12.90;;;7.93;;
85162;SDS011;75527;48.526;9.158;2024-03-22T06:06:19;15.35;;;8.88;;
85162;SDS011;75527;48.526;9.158;2024-03-22T06:08:47;12.75;;;8.00;;
85162;SDS011;75527;48.526;9.158;2024-03-22T06:11:17;15.20;;;8.13;;
85162;SDS011;75527;48.526;9.158;2024-03-22T06:13:42;14.60;;;7.70;;
85162;SDS011;75527;48.526;9.158;2024-03-22T06:16:07;15.13;;;8.73;;
85162;SDS011;75527;48.526;9.158;2024-03-22T06:18:33;16.10;;;8.47;;
85162;SDS011;75527;48.526;9.158;2024-03-22T06:20:58;19.42;;;9.98;;
85162;SDS011;75527;48.526;9.158;2024-03-22T06:23:23;23.10;;;12.33;;
85162;SDS011;75527;48.526;9.158;2024-03-22T06:25:52;20.95;;;10.98;;
85162;SDS011;75527;48.526;9.158;2024-03-22T06:28:18;18.85;;;9.10;;
85162;SDS011;75527;48.526;9.158;2024-03-22T06:30:43;16.00;;;8.52;;
85162;SDS011;75527;48.526;9.158;2024-03-22T06:33:08;13.88;;;7.90;;
85162;SDS011;75527;48.526;9.158;2024-03-22T06:35:33;16.15;;;7.82;;
85162;SDS011;75527;48.526;9.158;2024-03-22T06:37:59;18.65;;;8.75;;
85162;SDS011;75527;48.526;9.158;2024-03-22T06:40:27;11.90;;;7.10;;
85162;SDS011;75527;48.526;9.158;2024-03-22T06:42:53;14.68;;;7.82;;
85162;SDS011;75527;48.526;9.158;2024-03-22T06:45:18;16.77;;;8.70;;
85162;SDS011;75527;48.526;9.158;2024-03-22T06:47:43;14.30;;;7.85;;
85162;SDS011;75527;48.526;9.158;2024-03-22T06:50:09;14.98;;;8.13;;
85162;SDS011;75527;48.526;9.158;2024-03-22T06:52:34;17.98;;;8.43;;
85162;SDS011;75527;48.526;9.158;2024-03-22T06:55:00;16.13;;;8.32;;
85162;SDS011;75527;48.526;9.158;2024-03-22T06:57:25;17.02;;;9.15;;
85162;SDS011;75527;48.526;9.158;2024-03-22T06:59:51;16.88;;;9.23;;
85162;SDS011;75527;48.526;9.158;2024-03-22T07:02:16;14.97;;;8.63;;
85162;SDS011;75527;48.526;9.158;2024-03-22T07:04:43;15.27;;;9.23;;
85162;SDS011;75527;48.526;9.158;2024-03-22T07:07:08;14.80;;;9.20;;
85162;SDS011;75527;48.526;9.158;2024-03-22T07:09:34;15.82;;;8.20;;
85162;SDS011;75527;48.526;9.158;2024-03-22T07:11:59;12.35;;;8.35;;
85162;SDS011;75527;48.526;9.158;2024-03-22T07:14:24;13.18;;;8.40;;
85162;SDS011;75527;48.526;9.158;2024-03-22T07:16:50;14.32;;;8.27;;
85162;SDS011;75527;48.526;9.158;2024-03-22T07:19:18;16.00;;;8.73;;
85162;SDS011;75527;48.526;9.158;2024-03-22T07:21:44;20.00;;;8.65;;
85162;SDS011;75527;48.526;9.158;2024-03-22T07:24:09;14.75;;;8.55;;
85162;SDS011;75527;48.526;9.158;2024-03-22T07:26:35;17.42;;;9.07;;
85162;SDS011;75527;48.526;9.158;2024-03-22T07:29:00;15.18;;;9.18;;
85162;SDS011;75527;48.526;9.158;2024-03-22T07:31:26;14.07;;;8.43;;
85162;SDS011;75527;48.526;9.158;2024-03-22T07:33:52;12.73;;;8.00;;
85162;SDS011;75527;48.526;9.158;2024-03-22T07:36:18;17.13;;;8.40;;
85162;SDS011;75527;48.526;9.158;2024-03-22T07:38:44;17.27;;;7.45;;
85162;SDS011;75527;48.526;9.158;2024-03-22T07:41:09;14.05;;;8.80;;
85162;SDS011;75527;48.526;9.158;2024-03-22T07:43:34;13.40;;;7.97;;
85162;SDS011;75527;48.526;9.158;2024-03-22T07:46:00;14.98;;;7.95;;
85162;SDS011;75527;48.526;9.158;2024-03-22T07:48:25;15.02;;;7.97;;
85162;SDS011;75527;48.526;9.158;2024-03-22T07:50:57;13.90;;;7.55;;
85162;SDS011;75527;48.526;9.158;2024-03-22T07:53:23;15.98;;;7.80;;
85162;SDS011;75527;48.526;9.158;2024-03-22T07:55:49;13.43;;;7.32;;
85162;SDS011;75527;48.526;9.158;2024-03-22T07:58:14;15.05;;;8.65;;
85162;SDS011;75527;48.526;9.158;2024-03-22T08:00:39;13.18;;;7.80;;
85162;SDS011;75527;48.526;9.158;2024-03-22T08:03:05;13.15;;;7.18;;
85162;SDS011;75527;48.526;9.158;2024-03-22T08:05:31;15.85;;;7.28;;
85162;SDS011;75527;48.526;9.158;2024-03-22T08:07:56;12.98;;;6.90;;
85162;SDS011;75527;48.526;9.158;2024-03-22T08:10:21;14.02;;;7.22;;
85162;SDS011;75527;48.526;9.158;2024-03-22T08:12:48;13.88;;;7.97;;
85162;SDS011;75527;48.526;9.158;2024-03-22T08:15:13;18.00;;;7.05;;
85162;SDS011;75527;48.526;9.158;2024-03-22T08:17:39;11.35;;;6.80;;
85162;SDS011;75527;48.526;9.158;2024-03-22T08:20:05;12.95;;;7.30;;
85162;SDS011;75527;48.526;9.158;2024-03-22T08:22:31;19.75;;;7.35;;
85162;SDS011;75527;48.526;9.158;2024-03-22T08:24:56;15.63;;;7.85;;
85162;SDS011;75527;48.526;9.158;2024-03-22T08:27:21;13.05;;;7.28;;
85162;SDS011;75527;48.526;9.158;2024-03-22T08:29:47;11.20;;;6.97;;
85162;SDS011;75527;48.526;9.158;2024-03-22T08:32:12;11.30;;;7.07;;
85162;SDS011;75527;48.526;9.158;2024-03-22T08:34:38;13.43;;;7.15;;
85162;SDS011;75527;48.526;9.158;2024-03-22T08:37:03;11.23;;;6.53;;
85162;SDS011;75527;48.526;9.158;2024-03-22T08:39:29;10.82;;;6.38;;
85162;SDS011;75527;48.526;9.158;2024-03-22T08:41:55;13.30;;;6.97;;
85162;SDS011;75527;48.526;9.158;2024-03-22T08:44:20;11.05;;;7.35;;
85162;SDS011;75527;48.526;9.158;2024-03-22T08:46:46;12.15;;;6.70;;
85162;SDS011;75527;48.526;9.158;2024-03-22T08:49:12;11.93;;;6.47;;
85162;SDS011;75527;48.526;9.158;2024-03-22T08:51:37;11.43;;;6.95;;
85162;SDS011;75527;48.526;9.158;2024-03-22T08:54:03;9.20;;;6.10;;
85162;SDS011;75527;48.526;9.158;2024-03-22T08:56:29;15.63;;;7.07;;
85162;SDS011;75527;48.526;9.158;2024-03-22T08:58:54;11.90;;;6.65;;
85162;SDS011;75527;48.526;9.158;2024-03-22T09:01:20;10.68;;;6.18;;
85162;SDS011;75527;48.526;9.158;2024-03-22T09:03:45;10.02;;;6.13;;
85162;SDS011;75527;48.526;9.158;2024-03-22T09:06:11;10.77;;;6.00;;
85162;SDS011;75527;48.526;9.158;2024-03-22T09:08:37;9.13;;;5.47;;
85162;SDS011;75527;48.526;9.158;2024-03-22T09:11:03;13.55;;;6.85;;
85162;SDS011;75527;48.526;9.158;2024-03-22T09:13:28;9.57;;;5.80;;
85162;SDS011;75527;48.526;9.158;2024-03-22T09:15:59;11.73;;;6.35;;
85162;SDS011;75527;48.526;9.158;2024-03-22T09:18:25;11.48;;;5.70;;
85162;SDS011;75527;48.526;9.158;2024-03-22T09:20:51;9.40;;;5.40;;
85162;SDS011;75527;48.526;9.158;2024-03-22T09:23:19;11.38;;;5.60;;
85162;SDS011;75527;48.526;9.158;2024-03-22T09:25:45;13.57;;;5.63;;
85162;SDS011;75527;48.526;9.158;2024-03-22T09:28:12;13.35;;;6.55;;
85162;SDS011;75527;48.526;9.158;2024-03-22T09:30:38;16.00;;;7.45;;
85162;SDS011;75527;48.526;9.158;2024-03-22T09:33:04;11.23;;;6.25;;
85162;SDS011;75527;48.526;9.158;2024-03-22T09:35:30;11.25;;;6.10;;
85162;SDS011;75527;48.526;9.158;2024-03-22T09:37:56;12.00;;;5.88;;
85162;SDS011;75527;48.526;9.158;2024-03-22T09:40:21;11.63;;;5.43;;
85162;SDS011;75527;48.526;9.158;2024-03-22T09:42:46;12.15;;;5.90;;
85162;SDS011;75527;48.526;9.158;2024-03-22T09:45:14;9.40;;;5.72;;
85162;SDS011;75527;48.526;9.158;2024-03-22T09:47:43;11.63;;;5.70;;
85162;SDS011;75527;48.526;9.158;2024-03-22T09:50:10;16.02;;;5.78;;
85162;SDS011;75527;48.526;9.158;2024-03-22T09:52:37;11.13;;;5.85;;
85162;SDS011;75527;48.526;9.158;2024-03-22T09:55:04;12.68;;;6.55;;
85162;SDS011;75527;48.526;9.158;2024-03-22T09:57:30;10.48;;;5.32;;
85162;SDS011;75527;48.526;9.158;2024-03-22T09:59:57;12.48;;;5.20;;
85162;SDS011;75527;48.526;9.158;2024-03-22T10:02:22;10.82;;;5.60;;
85162;SDS011;75527;48.526;9.158;2024-03-22T10:04:48;10.20;;;5.60;;
85162;SDS011;75527;48.526;9.158;2024-03-22T10:07:16;11.23;;;5.10;;
85162;SDS011;75527;48.526;9.158;2024-03-22T10:09:42;9.65;;;5.03;;
85162;SDS011;75527;48.526;9.158;2024-03-22T10:12:09;12.75;;;5.40;;
85162;SDS011;75527;48.526;9.158;2024-03-22T10:14:34;11.40;;;4.50;;
85162;SDS011;75527;48.526;9.158;2024-03-22T10:17:01;11.93;;;4.53;;
85162;SDS011;75527;48.526;9.158;2024-03-22T10:19:27;8.70;;;4.97;;
85162;SDS011;75527;48.526;9.158;2024-03-22T10:22:02;6.32;;;4.38;;
85162;SDS011;75527;48.526;9.158;2024-03-22T10:24:29;8.63;;;4.68;;
85162;SDS011;75527;48.526;9.158;2024-03-22T10:26:55;8.65;;;4.90;;
85162;SDS011;75527;48.526;9.158;2024-03-22T10:29:21;8.98;;;4.93;;
85162;SDS011;75527;48.526;9.158;2024-03-22T10:31:47;12.38;;;5.18;;
85162;SDS011;75527;48.526;9.158;2024-03-22T10:34:13;8.07;;;4.07;;
85162;SDS011;75527;48.526;9.158;2024-03-22T10:36:39;6.50;;;3.97;;
85162;SDS011;75527;48.526;9.158;2024-03-22T10:39:05;8.07;;;3.80;;
85162;SDS011;75527;48.526;9.158;2024-03-22T10:41:30;10.50;;;3.30;;
85162;SDS011;75527;48.526;9.158;2024-03-22T10:43:56;6.80;;;3.30;;
85162;SDS011;75527;48.526;9.158;2024-03-22T10:46:23;8.32;;;3.90;;
85162;SDS011;75527;48.526;9.158;2024-03-22T10:48:54;9.68;;;4.13;;
85162;SDS011;75527;48.526;9.158;2024-03-22T10:51:20;11.15;;;4.85;;
85162;SDS011;75527;48.526;9.158;2024-03-22T10:53:48;8.93;;;3.50;;
85162;SDS011;75527;48.526;9.158;2024-03-22T10:56:16;8.40;;;4.28;;
85162;SDS011;75527;48.526;9.158;2024-03-22T10:58:42;13.27;;;4.03;;
85162;SDS011;75527;48.526;9.158;2024-03-22T11:01:22;10.57;;;4.72;;
85162;SDS011;75527;48.526;9.158;2024-03-22T11:03:48;7.70;;;4.55;;
85162;SDS011;75527;48.526;9.158;2024-03-22T11:06:17;7.88;;;4.05;;
85162;SDS011;75527;48.526;9.158;2024-03-22T11:08:44;7.40;;;4.30;;
85162;SDS011;75527;48.526;9.158;2024-03-22T11:11:11;10.38;;;4.55;;
85162;SDS011;75527;48.526;9.158;2024-03-22T11:13:37;8.98;;;4.32;;
85162;SDS011;75527;48.526;9.158;2024-03-22T11:16:04;9.20;;;5.38;;
85162;SDS011;75527;48.526;9.158;2024-03-22T11:18:30;7.78;;;4.63;;
85162;SDS011;75527;48.526;9.158;2024-03-22T11:20:55;9.60;;;4.03;;
85162;SDS011;75527;48.526;9.158;2024-03-22T11:23:20;6.85;;;3.85;;
85162;SDS011;75527;48.526;9.158;2024-03-22T11:25:46;6.57;;;3.88;;
85162;SDS011;75527;48.526;9.158;2024-03-22T11:28:11;8.00;;;4.68;;
85162;SDS011;75527;48.526;9.158;2024-03-22T11:30:37;7.97;;;3.83;;
85162;SDS011;75527;48.526;9.158;2024-03-22T11:33:02;6.15;;;4.00;;
85162;SDS011;75527;48.526;9.158;2024-03-22T11:35:29;7.75;;;3.08;;
85162;SDS011;75527;48.526;9.158;2024-03-22T11:37:54;5.72;;;3.17;;
85162;SDS011;75527;48.526;9.158;2024-03-22T11:40:21;6.63;;;3.15;;
85162;SDS011;75527;48.526;9.158;2024-03-22T11:42:48;5.45;;;3.05;;
85162;SDS011;75527;48.526;9.158;2024-03-22T11:45:17;5.50;;;3.20;;
85162;SDS011;75527;48.526;9.158;2024-03-22T11:47:43;5.03;;;3.10;;
85162;SDS011;75527;48.526;9.158;2024-03-22T11:50:11;6.60;;;3.75;;
85162;SDS011;75527;48.526;9.158;2024-03-22T11:52:39;8.57;;;3.65;;
85162;SDS011;75527;48.526;9.158;2024-03-22T11:55:06;6.90;;;3.10;;
85162;SDS011;75527;48.526;9.158;2024-03-22T11:57:31;4.07;;;2.40;;
85162;SDS011;75527;48.526;9.158;2024-03-22T12:00:00;6.78;;;2.97;;
85162;SDS011;75527;48.526;9.158;2024-03-22T12:02:26;6.72;;;3.50;;
85162;SDS011;75527;48.526;9.158;2024-03-22T12:04:53;7.85;;;3.95;;
85162;SDS011;75527;48.526;9.158;2024-03-22T12:07:19;9.02;;;3.60;;
85162;SDS011;75527;48.526;9.158;2024-03-22T12:09:44;6.20;;;3.13;;
85162;SDS011;75527;48.526;9.158;2024-03-22T12:12:10;5.18;;;3.05;;
85162;SDS011;75527;48.526;9.158;2024-03-22T12:14:36;14.68;;;3.38;;
85162;SDS011;75527;48.526;9.158;2024-03-22T12:17:02;5.03;;;3.17;;
85162;SDS011;75527;48.526;9.158;2024-03-22T12:19:28;7.60;;;3.22;;
85162;SDS011;75527;48.526;9.158;2024-03-22T12:21:53;6.28;;;3.03;;
85162;SDS011;75527;48.526;9.158;2024-03-22T12:24:19;8.43;;;2.78;;
85162;SDS011;75527;48.526;9.158;2024-03-22T12:26:44;4.22;;;2.65;;
85162;SDS011;75527;48.526;9.158;2024-03-22T12:29:10;6.43;;;2.55;;
85162;SDS011;75527;48.526;9.158;2024-03-22T12:31:37;5.43;;;2.45;;
85162;SDS011;75527;48.526;9.158;2024-03-22T12:34:03;4.03;;;2.55;;
85162;SDS011;75527;48.526;9.158;2024-03-22T12:36:28;5.15;;;2.55;;
85162;SDS011;75527;48.526;9.158;2024-03-22T12:38:54;6.50;;;2.90;;
85162;SDS011;75527;48.526;9.158;2024-03-22T12:41:19;7.45;;;2.80;;
85162;SDS011;75527;48.526;9.158;2024-03-22T12:43:44;3.60;;;2.45;;
85162;SDS011;75527;48.526;9.158;2024-03-22T12:46:10;4.03;;;2.50;;
85162;SDS011;75527;48.526;9.158;2024-03-22T12:48:35;4.57;;;2.30;;
85162;SDS011;75527;48.526;9.158;2024-03-22T12:51:01;5.75;;;2.60;;
85162;SDS011;75527;48.526;9.158;2024-03-22T12:53:26;4.93;;;2.40;;
85162;SDS011;75527;48.526;9.158;2024-03-22T12:55:52;4.40;;;2.28;;
85162;SDS011;75527;48.526;9.158;2024-03-22T12:58:17;4.00;;;2.35;;
85162;SDS011;75527;48.526;9.158;2024-03-22T13:00:42;6.75;;;2.30;;
85162;SDS011;75527;48.526;9.158;2024-03-22T13:03:07;4.28;;;2.10;;
85162;SDS011;75527;48.526;9.158;2024-03-22T13:05:33;5.65;;;2.47;;
85162;SDS011;75527;48.526;9.158;2024-03-22T13:07:58;3.28;;;2.28;;
85162;SDS011;75527;48.526;9.158;2024-03-22T13:10:23;2.90;;;2.13;;
85162;SDS011;75527;48.526;9.158;2024-03-22T13:12:49;4.93;;;2.15;;
85162;SDS011;75527;48.526;9.158;2024-03-22T13:15:14;5.97;;;2.40;;
85162;SDS011;75527;48.526;9.158;2024-03-22T13:17:39;3.58;;;2.30;;
85162;SDS011;75527;48.526;9.158;2024-03-22T13:20:05;4.80;;;2.00;;
85162;SDS011;75527;48.526;9.158;2024-03-22T13:22:35;4.63;;;2.10;;
85162;SDS011;75527;48.526;9.158;2024-03-22T13:25:04;3.30;;;2.00;;
85162;SDS011;75527;48.526;9.158;2024-03-22T13:27:32;3.50;;;1.85;;
85162;SDS011;75527;48.526;9.158;2024-03-22T13:30:00;3.40;;;2.10;;
85162;SDS011;75527;48.526;9.158;2024-03-22T13:32:26;2.47;;;1.92;;
85162;SDS011;75527;48.526;9.158;2024-03-22T13:34:52;3.05;;;1.90;;
85162;SDS011;75527;48.526;9.158;2024-03-22T13:37:18;2.97;;;1.90;;
85162;SDS011;75527;48.526;9.158;2024-03-22T13:39:43;3.83;;;2.28;;
85162;SDS011;75527;48.526;9.158;2024-03-22T13:42:13;4.93;;;2.30;;
85162;SDS011;75527;48.526;9.158;2024-03-22T13:44:39;3.92;;;1.90;;
85162;SDS011;75527;48.526;9.158;2024-03-22T13:47:04;3.75;;;2.13;;
85162;SDS011;75527;48.526;9.158;2024-03-22T13:49:29;6.93;;;2.95;;
85162;SDS011;75527;48.526;9.158;2024-03-22T13:51:55;2.45;;;1.80;;
85162;SDS011;75527;48.526;9.158;2024-03-22T13:54:24;1.95;;;1.60;;
85162;SDS011;75527;48.526;9.158;2024-03-22T13:56:49;3.55;;;1.88;;
85162;SDS011;75527;48.526;9.158;2024-03-22T13:59:14;3.42;;;1.90;;
85162;SDS011;75527;48.526;9.158;2024-03-22T14:01:41;4.05;;;2.03;;
85162;SDS011;75527;48.526;9.158;2024-03-22T14:04:06;4.03;;;1.80;;
85162;SDS011;75527;48.526;9.158;2024-03-22T14:06:32;3.30;;;2.20;;
85162;SDS011;75527;48.526;9.158;2024-03-22T14:08:58;2.10;;;1.75;;
85162;SDS011;75527;48.526;9.158;2024-03-22T14:11:28;3.22;;;2.47;;
85162;SDS011;75527;48.526;9.158;2024-03-22T14:13:55;4.68;;;1.90;;
85162;SDS011;75527;48.526;9.158;2024-03-22T14:16:20;3.85;;;1.80;;
85162;SDS011;75527;48.526;9.158;2024-03-22T14:18:46;2.58;;;1.60;;
85162;SDS011;75527;48.526;9.158;2024-03-22T14:21:11;6.22;;;1.88;;
85162;SDS011;75527;48.526;9.158;2024-03-22T14:23:39;3.80;;;1.88;;
85162;SDS011;75527;48.526;9.158;2024-03-22T14:26:05;2.60;;;1.80;;
85162;SDS011;75527;48.526;9.158;2024-03-22T14:28:30;6.05;;;2.10;;
85162;SDS011;75527;48.526;9.158;2024-03-22T14:30:56;3.03;;;1.60;;